sensor_id;sensor_type;location;lat;lon;timestamp;P1;durP1;ratioP1;P2;durP2;ratioP2
13720;SDS011;6932;51.438;5.470;2023-09-12T00:01:41;14.03;;;10.30;;
13720;SDS011;6932;51.438;5.470;2023-09-12T00:04:06;12.93;;;9.60;;
13720;SDS011;6932;51.438;5.470;2023-09-12T00:06:32;15.43;;;10.73;;
13720;SDS011;6932;51.438;5.470;2023-09-12T00:08:58;15.10;;;10.73;;
13720;SDS011;6932;51.438;5.470;2023-09-12T00:11:24;15.23;;;10.80;;
13720;SDS011;6932;51.438;5.470;2023-09-12T00:13:50;15.23;;;11.00;;
13720;SDS011;6932;51.438;5.470;2023-09-12T00:16:17;14.93;;;11.30;;
13720;SDS011;6932;51.438;5.470;2023-09-12T00:18:43;13.20;;;10.07;;
13720;SDS011;6932;51.438;5.470;2023-09-12T00:21:09;15.53;;;11.23;;
13720;SDS011;6932;51.438;5.470;2023-09-12T00:23:34;14.57;;;11.03;;
13720;SDS011;6932;51.438;5.470;2023-09-12T00:26:00;15.33;;;10.83;;
13720;SDS011;6932;51.438;5.470;2023-09-12T00:28:26;14.43;;;11.17;;
13720;SDS011;6932;51.438;5.470;2023-09-12T00:30:52;14.20;;;10.60;;
13720;SDS011;6932;51.438;5.470;2023-09-12T00:33:18;15.13;;;10.70;;
13720;SDS011;6932;51.438;5.470;2023-09-12T00:35:44;14.13;;;11.00;;
13720;SDS011;6932;51.438;5.470;2023-09-12T00:38:10;15.73;;;11.70;;
13720;SDS011;6932;51.438;5.470;2023-09-12T00:40:36;14.57;;;11.20;;
13720;SDS011;6932;51.438;5.470;2023-09-12T00:43:02;15.03;;;10.97;;
13720;SDS011;6932;51.438;5.470;2023-09-12T00:45:29;14.20;;;11.30;;
13720;SDS011;6932;51.438;5.470;2023-09-12T00:47:55;15.67;;;11.17;;
13720;SDS011;6932;51.438;5.470;2023-09-12T00:50:25;15.50;;;11.90;;
13720;SDS011;6932;51.438;5.470;2023-09-12T00:52:51;14.10;;;10.57;;
13720;SDS011;6932;51.438;5.470;2023-09-12T00:55:19;14.13;;;11.53;;
13720;SDS011;6932;51.438;5.470;2023-09-12T00:57:45;15.37;;;11.17;;
13720;SDS011;6932;51.438;5.470;2023-09-12T01:00:12;15.33;;;10.90;;
13720;SDS011;6932;51.438;5.470;2023-09-12T01:02:40;15.23;;;11.37;;
13720;SDS011;6932;51.438;5.470;2023-09-12T01:05:09;15.97;;;11.83;;
13720;SDS011;6932;51.438;5.470;2023-09-12T01:07:37;14.03;;;11.07;;
13720;SDS011;6932;51.438;5.470;2023-09-12T01:10:04;14.17;;;11.03;;
13720;SDS011;6932;51.438;5.470;2023-09-12T01:12:32;17.17;;;11.40;;
13720;SDS011;6932;51.438;5.470;2023-09-12T01:14:58;15.57;;;11.10;;
13720;SDS011;6932;51.438;5.470;2023-09-12T01:17:24;14.43;;;11.37;;
13720;SDS011;6932;51.438;5.470;2023-09-12T01:19:51;16.80;;;11.83;;
13720;SDS011;6932;51.438;5.470;2023-09-12T01:25:31;16.17;;;11.57;;
13720;SDS011;6932;51.438;5.470;2023-09-12T01:28:16;14.33;;;11.47;;
13720;SDS011;6932;51.438;5.470;2023-09-12T01:30:42;15.00;;;11.40;;
13720;SDS011;6932;51.438;5.470;2023-09-12T01:33:12;15.80;;;12.03;;
13720;SDS011;6932;51.438;5.470;2023-09-12T01:35:38;16.77;;;11.13;;
13720;SDS011;6932;51.438;5.470;2023-09-12T01:38:03;14.37;;;11.20;;
13720;SDS011;6932;51.438;5.470;2023-09-12T01:40:50;14.73;;;11.10;;
13720;SDS011;6932;51.438;5.470;2023-09-12T01:43:17;15.50;;;11.10;;
13720;SDS011;6932;51.438;5.470;2023-09-12T01:45:50;14.40;;;10.97;;
13720;SDS011;6932;51.438;5.470;2023-09-12T01:48:22;15.60;;;11.37;;
13720;SDS011;6932;51.438;5.470;2023-09-12T01:50:55;14.60;;;11.33;;
13720;SDS011;6932;51.438;5.470;2023-09-12T01:53:21;15.50;;;11.90;;
13720;SDS011;6932;51.438;5.470;2023-09-12T01:55:47;15.17;;;11.70;;
13720;SDS011;6932;51.438;5.470;2023-09-12T01:58:14;14.70;;;11.67;;
13720;SDS011;6932;51.438;5.470;2023-09-12T02:00:40;15.37;;;11.33;;
13720;SDS011;6932;51.438;5.470;2023-09-12T02:03:06;14.83;;;11.07;;
13720;SDS011;6932;51.438;5.470;2023-09-12T02:05:32;15.03;;;11.43;;
13720;SDS011;6932;51.438;5.470;2023-09-12T02:07:58;15.50;;;11.77;;
13720;SDS011;6932;51.438;5.470;2023-09-12T02:10:26;15.20;;;11.80;;
13720;SDS011;6932;51.438;5.470;2023-09-12T02:12:52;17.33;;;12.00;;
13720;SDS011;6932;51.438;5.470;2023-09-12T02:15:18;15.07;;;12.10;;
13720;SDS011;6932;51.438;5.470;2023-09-12T02:17:44;14.50;;;11.40;;
13720;SDS011;6932;51.438;5.470;2023-09-12T02:20:09;15.97;;;12.17;;
13720;SDS011;6932;51.438;5.470;2023-09-12T02:22:36;15.73;;;11.83;;
13720;SDS011;6932;51.438;5.470;2023-09-12T02:25:03;15.07;;;11.67;;
13720;SDS011;6932;51.438;5.470;2023-09-12T02:27:30;16.10;;;12.53;;
13720;SDS011;6932;51.438;5.470;2023-09-12T02:29:56;15.47;;;12.00;;
13720;SDS011;6932;51.438;5.470;2023-09-12T02:32:22;15.57;;;12.03;;
13720;SDS011;6932;51.438;5.470;2023-09-12T02:34:48;15.47;;;12.10;;
13720;SDS011;6932;51.438;5.470;2023-09-12T02:37:13;15.63;;;12.03;;
13720;SDS011;6932;51.438;5.470;2023-09-12T02:39:40;16.63;;;12.07;;
13720;SDS011;6932;51.438;5.470;2023-09-12T02:42:06;16.53;;;12.50;;
13720;SDS011;6932;51.438;5.470;2023-09-12T02:44:32;14.73;;;11.47;;
13720;SDS011;6932;51.438;5.470;2023-09-12T02:46:58;15.90;;;12.60;;
13720;SDS011;6932;51.438;5.470;2023-09-12T02:49:23;15.57;;;12.30;;
13720;SDS011;6932;51.438;5.470;2023-09-12T02:51:49;15.17;;;12.50;;
13720;SDS011;6932;51.438;5.470;2023-09-12T02:54:15;15.70;;;12.10;;
13720;SDS011;6932;51.438;5.470;2023-09-12T02:56:41;14.70;;;11.63;;
13720;SDS011;6932;51.438;5.470;2023-09-12T02:59:06;15.67;;;11.93;;
13720;SDS011;6932;51.438;5.470;2023-09-12T03:01:32;15.93;;;11.80;;
13720;SDS011;6932;51.438;5.470;2023-09-12T03:03:58;14.60;;;11.80;;
13720;SDS011;6932;51.438;5.470;2023-09-12T03:06:23;15.23;;;11.30;;
13720;SDS011;6932;51.438;5.470;2023-09-12T03:08:49;15.83;;;11.73;;
13720;SDS011;6932;51.438;5.470;2023-09-12T03:11:15;15.93;;;12.43;;
13720;SDS011;6932;51.438;5.470;2023-09-12T03:13:41;17.87;;;12.27;;
13720;SDS011;6932;51.438;5.470;2023-09-12T03:16:10;15.43;;;12.60;;
13720;SDS011;6932;51.438;5.470;2023-09-12T03:18:37;15.50;;;12.17;;
13720;SDS011;6932;51.438;5.470;2023-09-12T03:21:03;16.87;;;12.27;;
13720;SDS011;6932;51.438;5.470;2023-09-12T03:23:29;16.87;;;12.10;;
13720;SDS011;6932;51.438;5.470;2023-09-12T03:25:55;17.17;;;12.47;;
13720;SDS011;6932;51.438;5.470;2023-09-12T03:28:27;18.73;;;12.37;;
13720;SDS011;6932;51.438;5.470;2023-09-12T03:30:53;16.47;;;12.67;;
13720;SDS011;6932;51.438;5.470;2023-09-12T03:33:38;16.77;;;12.47;;
13720;SDS011;6932;51.438;5.470;2023-09-12T03:36:06;14.77;;;11.80;;
13720;SDS011;6932;51.438;5.470;2023-09-12T03:38:33;16.67;;;13.03;;
13720;SDS011;6932;51.438;5.470;2023-09-12T03:41:00;15.23;;;12.13;;
13720;SDS011;6932;51.438;5.470;2023-09-12T03:43:26;16.33;;;13.33;;
13720;SDS011;6932;51.438;5.470;2023-09-12T03:45:53;16.80;;;13.57;;
13720;SDS011;6932;51.438;5.470;2023-09-12T03:48:19;16.43;;;13.37;;
13720;SDS011;6932;51.438;5.470;2023-09-12T03:50:45;16.17;;;13.33;;
13720;SDS011;6932;51.438;5.470;2023-09-12T03:53:10;17.07;;;13.80;;
13720;SDS011;6932;51.438;5.470;2023-09-12T03:55:38;18.70;;;13.87;;
13720;SDS011;6932;51.438;5.470;2023-09-12T03:58:04;18.53;;;14.40;;
13720;SDS011;6932;51.438;5.470;2023-09-12T04:00:29;17.17;;;13.27;;
13720;SDS011;6932;51.438;5.470;2023-09-12T04:02:55;16.37;;;12.70;;
13720;SDS011;6932;51.438;5.470;2023-09-12T04:05:21;18.00;;;13.90;;
13720;SDS011;6932;51.438;5.470;2023-09-12T04:07:47;16.03;;;13.47;;
13720;SDS011;6932;51.438;5.470;2023-09-12T04:10:13;17.37;;;13.77;;
13720;SDS011;6932;51.438;5.470;2023-09-12T04:12:38;17.03;;;13.13;;
13720;SDS011;6932;51.438;5.470;2023-09-12T04:15:06;16.53;;;13.47;;
13720;SDS011;6932;51.438;5.470;2023-09-12T04:17:32;16.23;;;13.07;;
13720;SDS011;6932;51.438;5.470;2023-09-12T04:19:57;18.97;;;13.23;;
13720;SDS011;6932;51.438;5.470;2023-09-12T04:22:23;18.10;;;13.73;;
13720;SDS011;6932;51.438;5.470;2023-09-12T04:24:49;18.37;;;13.67;;
13720;SDS011;6932;51.438;5.470;2023-09-12T04:27:14;17.90;;;13.63;;
13720;SDS011;6932;51.438;5.470;2023-09-12T04:29:40;18.13;;;14.00;;
13720;SDS011;6932;51.438;5.470;2023-09-12T04:32:06;16.90;;;14.13;;
13720;SDS011;6932;51.438;5.470;2023-09-12T04:34:32;17.20;;;13.33;;
13720;SDS011;6932;51.438;5.470;2023-09-12T04:36:57;17.67;;;14.40;;
13720;SDS011;6932;51.438;5.470;2023-09-12T04:39:23;18.50;;;14.43;;
13720;SDS011;6932;51.438;5.470;2023-09-12T04:41:49;18.73;;;13.83;;
13720;SDS011;6932;51.438;5.470;2023-09-12T04:44:15;17.60;;;13.87;;
13720;SDS011;6932;51.438;5.470;2023-09-12T04:46:41;16.83;;;13.73;;
13720;SDS011;6932;51.438;5.470;2023-09-12T04:49:06;18.30;;;14.17;;
13720;SDS011;6932;51.438;5.470;2023-09-12T04:51:32;17.67;;;13.83;;
13720;SDS011;6932;51.438;5.470;2023-09-12T04:53:58;18.10;;;14.30;;
13720;SDS011;6932;51.438;5.470;2023-09-12T04:56:23;16.23;;;13.57;;
13720;SDS011;6932;51.438;5.470;2023-09-12T04:58:49;17.37;;;13.50;;
13720;SDS011;6932;51.438;5.470;2023-09-12T05:01:15;16.30;;;13.53;;
13720;SDS011;6932;51.438;5.470;2023-09-12T05:03:42;16.87;;;12.97;;
13720;SDS011;6932;51.438;5.470;2023-09-12T05:06:09;16.47;;;12.67;;
13720;SDS011;6932;51.438;5.470;2023-09-12T05:08:35;17.83;;;13.73;;
13720;SDS011;6932;51.438;5.470;2023-09-12T05:11:01;17.17;;;13.73;;
13720;SDS011;6932;51.438;5.470;2023-09-12T05:13:30;17.27;;;13.43;;
13720;SDS011;6932;51.438;5.470;2023-09-12T05:15:56;16.63;;;13.17;;
13720;SDS011;6932;51.438;5.470;2023-09-12T05:18:22;16.43;;;13.27;;
13720;SDS011;6932;51.438;5.470;2023-09-12T05:20:48;18.83;;;13.23;;
13720;SDS011;6932;51.438;5.470;2023-09-12T05:23:14;15.17;;;12.37;;
13720;SDS011;6932;51.438;5.470;2023-09-12T05:25:40;16.90;;;12.80;;
13720;SDS011;6932;51.438;5.470;2023-09-12T05:28:06;18.03;;;12.77;;
13720;SDS011;6932;51.438;5.470;2023-09-12T05:30:32;16.53;;;12.60;;
13720;SDS011;6932;51.438;5.470;2023-09-12T05:32:58;19.63;;;13.23;;
13720;SDS011;6932;51.438;5.470;2023-09-12T05:35:24;15.43;;;13.67;;
13720;SDS011;6932;51.438;5.470;2023-09-12T05:37:50;16.77;;;13.07;;
13720;SDS011;6932;51.438;5.470;2023-09-12T05:40:17;18.50;;;13.80;;
13720;SDS011;6932;51.438;5.470;2023-09-12T05:42:43;17.10;;;13.60;;
13720;SDS011;6932;51.438;5.470;2023-09-12T05:45:09;18.60;;;13.33;;
13720;SDS011;6932;51.438;5.470;2023-09-12T05:47:35;17.60;;;13.53;;
13720;SDS011;6932;51.438;5.470;2023-09-12T05:50:01;17.13;;;12.87;;
13720;SDS011;6932;51.438;5.470;2023-09-12T05:52:30;17.33;;;13.20;;
13720;SDS011;6932;51.438;5.470;2023-09-12T05:54:56;17.53;;;13.13;;
13720;SDS011;6932;51.438;5.470;2023-09-12T05:57:22;17.10;;;13.33;;
13720;SDS011;6932;51.438;5.470;2023-09-12T05:59:48;17.23;;;14.47;;
13720;SDS011;6932;51.438;5.470;2023-09-12T06:02:14;17.37;;;13.50;;
13720;SDS011;6932;51.438;5.470;2023-09-12T06:04:40;17.63;;;14.03;;
13720;SDS011;6932;51.438;5.470;2023-09-12T06:07:06;19.53;;;14.80;;
13720;SDS011;6932;51.438;5.470;2023-09-12T06:09:32;17.73;;;13.60;;
13720;SDS011;6932;51.438;5.470;2023-09-12T06:11:57;19.53;;;13.97;;
13720;SDS011;6932;51.438;5.470;2023-09-12T06:14:23;19.33;;;13.87;;
13720;SDS011;6932;51.438;5.470;2023-09-12T06:16:49;18.20;;;13.70;;
13720;SDS011;6932;51.438;5.470;2023-09-12T06:19:14;18.37;;;14.10;;
13720;SDS011;6932;51.438;5.470;2023-09-12T06:21:41;17.07;;;13.43;;
13720;SDS011;6932;51.438;5.470;2023-09-12T06:24:19;17.17;;;14.17;;
13720;SDS011;6932;51.438;5.470;2023-09-12T06:26:48;19.63;;;14.33;;
13720;SDS011;6932;51.438;5.470;2023-09-12T06:29:14;18.80;;;13.47;;
13720;SDS011;6932;51.438;5.470;2023-09-12T06:31:40;17.03;;;13.37;;
13720;SDS011;6932;51.438;5.470;2023-09-12T06:34:07;19.03;;;14.30;;
13720;SDS011;6932;51.438;5.470;2023-09-12T06:36:33;18.53;;;14.10;;
13720;SDS011;6932;51.438;5.470;2023-09-12T06:38:59;17.17;;;13.40;;
13720;SDS011;6932;51.438;5.470;2023-09-12T06:41:26;15.83;;;12.27;;
13720;SDS011;6932;51.438;5.470;2023-09-12T06:43:52;17.30;;;12.93;;
13720;SDS011;6932;51.438;5.470;2023-09-12T06:46:18;17.23;;;12.80;;
13720;SDS011;6932;51.438;5.470;2023-09-12T06:48:44;15.03;;;11.43;;
13720;SDS011;6932;51.438;5.470;2023-09-12T06:51:11;16.50;;;11.60;;
13720;SDS011;6932;51.438;5.470;2023-09-12T06:53:37;16.60;;;12.57;;
13720;SDS011;6932;51.438;5.470;2023-09-12T06:56:03;15.67;;;12.20;;
13720;SDS011;6932;51.438;5.470;2023-09-12T06:58:32;15.60;;;12.53;;
13720;SDS011;6932;51.438;5.470;2023-09-12T07:01:02;17.53;;;13.03;;
13720;SDS011;6932;51.438;5.470;2023-09-12T07:03:30;16.90;;;12.43;;
13720;SDS011;6932;51.438;5.470;2023-09-12T07:06:00;18.23;;;12.67;;
13720;SDS011;6932;51.438;5.470;2023-09-12T07:08:28;18.60;;;13.40;;
13720;SDS011;6932;51.438;5.470;2023-09-12T07:10:58;17.53;;;12.60;;
13720;SDS011;6932;51.438;5.470;2023-09-12T07:13:30;17.30;;;13.90;;
13720;SDS011;6932;51.438;5.470;2023-09-12T07:15:58;17.30;;;12.83;;
13720;SDS011;6932;51.438;5.470;2023-09-12T07:18:24;16.63;;;12.53;;
13720;SDS011;6932;51.438;5.470;2023-09-12T07:20:56;17.13;;;12.37;;
13720;SDS011;6932;51.438;5.470;2023-09-12T07:23:28;16.53;;;11.80;;
13720;SDS011;6932;51.438;5.470;2023-09-12T07:25:54;15.60;;;11.93;;
13720;SDS011;6932;51.438;5.470;2023-09-12T07:28:25;14.90;;;11.43;;
13720;SDS011;6932;51.438;5.470;2023-09-12T07:30:52;13.87;;;10.63;;
13720;SDS011;6932;51.438;5.470;2023-09-12T07:33:19;14.20;;;10.97;;
13720;SDS011;6932;51.438;5.470;2023-09-12T07:35:46;14.40;;;10.70;;
13720;SDS011;6932;51.438;5.470;2023-09-12T07:38:13;15.20;;;10.80;;
13720;SDS011;6932;51.438;5.470;2023-09-12T07:40:41;15.87;;;10.30;;
13720;SDS011;6932;51.438;5.470;2023-09-12T07:43:07;14.50;;;11.10;;
13720;SDS011;6932;51.438;5.470;2023-09-12T07:45:34;16.33;;;10.43;;
13720;SDS011;6932;51.438;5.470;2023-09-12T07:48:05;13.70;;;10.10;;
13720;SDS011;6932;51.438;5.470;2023-09-12T07:50:33;13.38;;;9.80;;
13720;SDS011;6932;51.438;5.470;2023-09-12T07:52:59;14.02;;;9.63;;
13720;SDS011;6932;51.438;5.470;2023-09-12T07:55:25;14.77;;;9.75;;
13720;SDS011;6932;51.438;5.470;2023-09-12T07:57:55;16.17;;;9.93;;
13720;SDS011;6932;51.438;5.470;2023-09-12T08:00:20;12.77;;;9.30;;
13720;SDS011;6932;51.438;5.470;2023-09-12T08:02:46;11.27;;;8.35;;
13720;SDS011;6932;51.438;5.470;2023-09-12T08:05:12;10.80;;;6.97;;
13720;SDS011;6932;51.438;5.470;2023-09-12T08:07:38;11.27;;;7.55;;
13720;SDS011;6932;51.438;5.470;2023-09-12T08:10:04;9.35;;;6.63;;
13720;SDS011;6932;51.438;5.470;2023-09-12T08:12:30;10.95;;;7.07;;
13720;SDS011;6932;51.438;5.470;2023-09-12T08:14:56;10.02;;;6.90;;
13720;SDS011;6932;51.438;5.470;2023-09-12T08:17:22;9.63;;;6.82;;
13720;SDS011;6932;51.438;5.470;2023-09-12T08:19:48;11.18;;;7.10;;
13720;SDS011;6932;51.438;5.470;2023-09-12T08:22:14;10.70;;;6.85;;
13720;SDS011;6932;51.438;5.470;2023-09-12T08:24:41;15.57;;;8.20;;
13720;SDS011;6932;51.438;5.470;2023-09-12T08:27:07;7.28;;;5.18;;
13720;SDS011;6932;51.438;5.470;2023-09-12T08:29:34;7.63;;;5.20;;
13720;SDS011;6932;51.438;5.470;2023-09-12T08:32:00;8.00;;;5.10;;
13720;SDS011;6932;51.438;5.470;2023-09-12T08:34:27;7.40;;;5.40;;
13720;SDS011;6932;51.438;5.470;2023-09-12T08:36:52;8.90;;;5.60;;
13720;SDS011;6932;51.438;5.470;2023-09-12T08:39:25;9.65;;;5.90;;
13720;SDS011;6932;51.438;5.470;2023-09-12T08:41:53;9.85;;;5.57;;
13720;SDS011;6932;51.438;5.470;2023-09-12T08:44:20;7.07;;;5.30;;
13720;SDS011;6932;51.438;5.470;2023-09-12T08:46:47;7.72;;;5.32;;
13720;SDS011;6932;51.438;5.470;2023-09-12T08:49:13;8.23;;;5.60;;
13720;SDS011;6932;51.438;5.470;2023-09-12T08:51:40;7.45;;;5.57;;
13720;SDS011;6932;51.438;5.470;2023-09-12T08:54:07;9.00;;;6.03;;
13720;SDS011;6932;51.438;5.470;2023-09-12T08:56:34;7.95;;;5.82;;
13720;SDS011;6932;51.438;5.470;2023-09-12T08:59:04;9.77;;;5.85;;
13720;SDS011;6932;51.438;5.470;2023-09-12T09:01:31;6.78;;;5.18;;
13720;SDS011;6932;51.438;5.470;2023-09-12T09:03:59;7.38;;;5.22;;
13720;SDS011;6932;51.438;5.470;2023-09-12T09:06:31;7.18;;;5.00;;
13720;SDS011;6932;51.438;5.470;2023-09-12T09:09:02;6.95;;;4.80;;
13720;SDS011;6932;51.438;5.470;2023-09-12T09:11:33;8.13;;;5.30;;
13720;SDS011;6932;51.438;5.470;2023-09-12T09:13:59;6.55;;;4.50;;
13720;SDS011;6932;51.438;5.470;2023-09-12T09:16:28;7.30;;;3.78;;
13720;SDS011;6932;51.438;5.470;2023-09-12T09:21:34;6.72;;;4.40;;
13720;SDS011;6932;51.438;5.470;2023-09-12T09:24:06;8.48;;;4.30;;
13720;SDS011;6932;51.438;5.470;2023-09-12T09:26:44;7.82;;;4.40;;
13720;SDS011;6932;51.438;5.470;2023-09-12T09:29:13;5.47;;;4.22;;
13720;SDS011;6932;51.438;5.470;2023-09-12T09:31:44;7.47;;;4.70;;
13720;SDS011;6932;51.438;5.470;2023-09-12T09:34:16;8.30;;;5.05;;
13720;SDS011;6932;51.438;5.470;2023-09-12T09:36:47;7.20;;;4.90;;
13720;SDS011;6932;51.438;5.470;2023-09-12T09:39:17;11.20;;;5.10;;
13720;SDS011;6932;51.438;5.470;2023-09-12T09:41:47;5.68;;;4.47;;
13720;SDS011;6932;51.438;5.470;2023-09-12T09:44:17;6.90;;;4.90;;
13720;SDS011;6932;51.438;5.470;2023-09-12T09:46:44;6.97;;;4.88;;
13720;SDS011;6932;51.438;5.470;2023-09-12T09:49:11;8.25;;;5.45;;
13720;SDS011;6932;51.438;5.470;2023-09-12T09:51:40;8.63;;;5.60;;
13720;SDS011;6932;51.438;5.470;2023-09-12T09:54:12;9.07;;;6.00;;
13720;SDS011;6932;51.438;5.470;2023-09-12T09:56:49;9.73;;;6.00;;
13720;SDS011;6932;51.438;5.470;2023-09-12T09:59:21;9.90;;;6.32;;
13720;SDS011;6932;51.438;5.470;2023-09-12T10:01:49;11.23;;;6.40;;
13720;SDS011;6932;51.438;5.470;2023-09-12T10:04:17;10.57;;;6.90;;
13720;SDS011;6932;51.438;5.470;2023-09-12T10:06:45;9.40;;;6.13;;
13720;SDS011;6932;51.438;5.470;2023-09-12T10:09:14;10.50;;;5.85;;
13720;SDS011;6932;51.438;5.470;2023-09-12T10:11:46;10.55;;;6.68;;
13720;SDS011;6932;51.438;5.470;2023-09-12T10:14:15;10.85;;;7.05;;
13720;SDS011;6932;51.438;5.470;2023-09-12T10:16:47;10.45;;;6.53;;
13720;SDS011;6932;51.438;5.470;2023-09-12T10:19:18;10.10;;;6.10;;
13720;SDS011;6932;51.438;5.470;2023-09-12T10:24:46;10.45;;;6.78;;
13720;SDS011;6932;51.438;5.470;2023-09-12T10:27:14;12.90;;;8.13;;
13720;SDS011;6932;51.438;5.470;2023-09-12T10:29:41;11.68;;;7.05;;
13720;SDS011;6932;51.438;5.470;2023-09-12T10:32:08;12.27;;;7.32;;
13720;SDS011;6932;51.438;5.470;2023-09-12T10:34:35;12.30;;;7.50;;
13720;SDS011;6932;51.438;5.470;2023-09-12T10:37:04;11.13;;;7.00;;
13720;SDS011;6932;51.438;5.470;2023-09-12T10:39:32;10.60;;;6.65;;
13720;SDS011;6932;51.438;5.470;2023-09-12T10:41:59;9.25;;;6.07;;
13720;SDS011;6932;51.438;5.470;2023-09-12T10:44:30;10.68;;;6.50;;
13720;SDS011;6932;51.438;5.470;2023-09-12T10:46:57;9.43;;;6.10;;
13720;SDS011;6932;51.438;5.470;2023-09-12T10:49:23;10.55;;;7.07;;
13720;SDS011;6932;51.438;5.470;2023-09-12T10:51:49;9.75;;;5.88;;
13720;SDS011;6932;51.438;5.470;2023-09-12T10:54:22;11.43;;;6.78;;
13720;SDS011;6932;51.438;5.470;2023-09-12T10:57:06;10.52;;;7.18;;
13720;SDS011;6932;51.438;5.470;2023-09-12T11:00:08;10.23;;;6.40;;
13720;SDS011;6932;51.438;5.470;2023-09-12T11:02:27;10.45;;;7.00;;
13720;SDS011;6932;51.438;5.470;2023-09-12T11:04:58;10.57;;;6.32;;
13720;SDS011;6932;51.438;5.470;2023-09-12T11:07:32;10.68;;;6.18;;
13720;SDS011;6932;51.438;5.470;2023-09-12T11:12:42;9.68;;;6.68;;
13720;SDS011;6932;51.438;5.470;2023-09-12T11:15:08;10.30;;;6.78;;
13720;SDS011;6932;51.438;5.470;2023-09-12T11:17:38;10.98;;;7.18;;
13720;SDS011;6932;51.438;5.470;2023-09-12T11:20:48;10.15;;;6.97;;
13720;SDS011;6932;51.438;5.470;2023-09-12T11:23:25;12.50;;;7.85;;
13720;SDS011;6932;51.438;5.470;2023-09-12T11:26:02;13.98;;;8.82;;
13720;SDS011;6932;51.438;5.470;2023-09-12T11:28:32;12.63;;;8.00;;
13720;SDS011;6932;51.438;5.470;2023-09-12T11:30:58;12.38;;;7.65;;
13720;SDS011;6932;51.438;5.470;2023-09-12T11:33:24;11.68;;;8.05;;
13720;SDS011;6932;51.438;5.470;2023-09-12T11:35:54;14.07;;;8.30;;
13720;SDS011;6932;51.438;5.470;2023-09-12T11:38:26;12.07;;;8.57;;
13720;SDS011;6932;51.438;5.470;2023-09-12T11:40:54;12.13;;;8.93;;
13720;SDS011;6932;51.438;5.470;2023-09-12T11:43:21;11.48;;;8.63;;
13720;SDS011;6932;51.438;5.470;2023-09-12T11:45:49;12.60;;;8.45;;
13720;SDS011;6932;51.438;5.470;2023-09-12T11:48:16;12.55;;;8.30;;
13720;SDS011;6932;51.438;5.470;2023-09-12T11:50:48;14.52;;;9.70;;
13720;SDS011;6932;51.438;5.470;2023-09-12T11:53:24;14.15;;;9.50;;
13720;SDS011;6932;51.438;5.470;2023-09-12T11:55:56;12.65;;;9.10;;
13720;SDS011;6932;51.438;5.470;2023-09-12T11:58:24;11.55;;;8.40;;
13720;SDS011;6932;51.438;5.470;2023-09-12T12:00:55;12.45;;;8.55;;
13720;SDS011;6932;51.438;5.470;2023-09-12T12:03:24;9.82;;;7.15;;
13720;SDS011;6932;51.438;5.470;2023-09-12T12:05:53;12.35;;;8.27;;
13720;SDS011;6932;51.438;5.470;2023-09-12T12:08:20;9.25;;;6.70;;
13720;SDS011;6932;51.438;5.470;2023-09-12T12:10:52;9.75;;;5.70;;
13720;SDS011;6932;51.438;5.470;2023-09-12T12:13:19;10.10;;;6.50;;
13720;SDS011;6932;51.438;5.470;2023-09-12T12:15:46;8.57;;;6.20;;
13720;SDS011;6932;51.438;5.470;2023-09-12T12:18:13;9.98;;;6.38;;
13720;SDS011;6932;51.438;5.470;2023-09-12T12:20:39;9.05;;;6.10;;
13720;SDS011;6932;51.438;5.470;2023-09-12T12:23:05;9.82;;;6.18;;
13720;SDS011;6932;51.438;5.470;2023-09-12T12:25:33;10.85;;;6.65;;
13720;SDS011;6932;51.438;5.470;2023-09-12T12:28:00;10.13;;;7.20;;
13720;SDS011;6932;51.438;5.470;2023-09-12T12:30:29;9.77;;;7.07;;
13720;SDS011;6932;51.438;5.470;2023-09-12T12:33:07;9.82;;;6.72;;
13720;SDS011;6932;51.438;5.470;2023-09-12T12:35:34;10.63;;;6.75;;
13720;SDS011;6932;51.438;5.470;2023-09-12T12:38:01;11.07;;;6.43;;
13720;SDS011;6932;51.438;5.470;2023-09-12T12:40:28;9.38;;;6.43;;
13720;SDS011;6932;51.438;5.470;2023-09-12T12:42:53;9.48;;;6.63;;
13720;SDS011;6932;51.438;5.470;2023-09-12T12:45:23;10.40;;;6.65;;
13720;SDS011;6932;51.438;5.470;2023-09-12T12:47:56;8.65;;;6.05;;
13720;SDS011;6932;51.438;5.470;2023-09-12T12:50:25;8.57;;;6.35;;
13720;SDS011;6932;51.438;5.470;2023-09-12T12:52:51;9.52;;;6.55;;
13720;SDS011;6932;51.438;5.470;2023-09-12T12:55:17;8.70;;;6.20;;
13720;SDS011;6932;51.438;5.470;2023-09-12T12:57:47;10.20;;;6.45;;
13720;SDS011;6932;51.438;5.470;2023-09-12T13:00:14;9.70;;;6.60;;
13720;SDS011;6932;51.438;5.470;2023-09-12T13:02:43;9.30;;;6.10;;
13720;SDS011;6932;51.438;5.470;2023-09-12T13:08:06;11.07;;;7.90;;
13720;SDS011;6932;51.438;5.470;2023-09-12T13:10:32;11.30;;;8.35;;
13720;SDS011;6932;51.438;5.470;2023-09-12T13:12:58;10.48;;;7.78;;
13720;SDS011;6932;51.438;5.470;2023-09-12T13:15:24;10.55;;;7.40;;
13720;SDS011;6932;51.438;5.470;2023-09-12T13:17:49;10.43;;;7.55;;
13720;SDS011;6932;51.438;5.470;2023-09-12T13:20:15;12.00;;;7.60;;
13720;SDS011;6932;51.438;5.470;2023-09-12T13:22:41;11.43;;;7.50;;
13720;SDS011;6932;51.438;5.470;2023-09-12T13:25:08;11.05;;;7.43;;
13720;SDS011;6932;51.438;5.470;2023-09-12T13:27:34;10.18;;;7.18;;
13720;SDS011;6932;51.438;5.470;2023-09-12T13:30:00;9.85;;;6.70;;
13720;SDS011;6932;51.438;5.470;2023-09-12T13:32:28;8.40;;;6.60;;
13720;SDS011;6932;51.438;5.470;2023-09-12T13:34:54;8.18;;;6.20;;
13720;SDS011;6932;51.438;5.470;2023-09-12T13:37:20;8.52;;;5.88;;
13720;SDS011;6932;51.438;5.470;2023-09-12T13:39:46;10.18;;;6.22;;
13720;SDS011;6932;51.438;5.470;2023-09-12T13:42:14;9.10;;;5.80;;
13720;SDS011;6932;51.438;5.470;2023-09-12T13:44:45;11.27;;;6.40;;
13720;SDS011;6932;51.438;5.470;2023-09-12T13:47:12;13.02;;;6.90;;
13720;SDS011;6932;51.438;5.470;2023-09-12T13:49:38;10.48;;;6.88;;
13720;SDS011;6932;51.438;5.470;2023-09-12T13:52:04;9.07;;;6.65;;
13720;SDS011;6932;51.438;5.470;2023-09-12T13:54:30;10.23;;;6.35;;
13720;SDS011;6932;51.438;5.470;2023-09-12T13:56:56;7.22;;;5.45;;
13720;SDS011;6932;51.438;5.470;2023-09-12T13:59:21;9.60;;;5.95;;
13720;SDS011;6932;51.438;5.470;2023-09-12T14:01:47;10.15;;;5.97;;
13720;SDS011;6932;51.438;5.470;2023-09-12T14:04:13;8.18;;;5.80;;
13720;SDS011;6932;51.438;5.470;2023-09-12T14:06:39;8.40;;;6.15;;
13720;SDS011;6932;51.438;5.470;2023-09-12T14:09:05;7.82;;;5.60;;
13720;SDS011;6932;51.438;5.470;2023-09-12T14:11:31;9.75;;;6.20;;
13720;SDS011;6932;51.438;5.470;2023-09-12T14:13:57;6.45;;;4.97;;
13720;SDS011;6932;51.438;5.470;2023-09-12T14:16:22;6.90;;;5.40;;
13720;SDS011;6932;51.438;5.470;2023-09-12T14:18:48;8.57;;;5.38;;
13720;SDS011;6932;51.438;5.470;2023-09-12T14:21:14;8.05;;;5.85;;
13720;SDS011;6932;51.438;5.470;2023-09-12T14:23:39;8.50;;;5.70;;
13720;SDS011;6932;51.438;5.470;2023-09-12T14:26:05;8.93;;;7.22;;
13720;SDS011;6932;51.438;5.470;2023-09-12T14:28:31;10.45;;;7.57;;
13720;SDS011;6932;51.438;5.470;2023-09-12T14:30:59;10.60;;;7.50;;
13720;SDS011;6932;51.438;5.470;2023-09-12T14:33:25;10.52;;;6.70;;
13720;SDS011;6932;51.438;5.470;2023-09-12T14:35:51;11.27;;;8.10;;
13720;SDS011;6932;51.438;5.470;2023-09-12T14:38:17;10.60;;;7.47;;
13720;SDS011;6932;51.438;5.470;2023-09-12T14:40:43;10.48;;;7.80;;
13720;SDS011;6932;51.438;5.470;2023-09-12T14:43:08;12.23;;;7.68;;
13720;SDS011;6932;51.438;5.470;2023-09-12T14:45:34;10.20;;;7.22;;
13720;SDS011;6932;51.438;5.470;2023-09-12T14:48:00;11.65;;;8.23;;
13720;SDS011;6932;51.438;5.470;2023-09-12T14:50:25;11.57;;;7.65;;
13720;SDS011;6932;51.438;5.470;2023-09-12T14:52:54;11.75;;;7.53;;
13720;SDS011;6932;51.438;5.470;2023-09-12T14:55:21;9.80;;;6.40;;
13720;SDS011;6932;51.438;5.470;2023-09-12T14:57:47;11.13;;;7.55;;
13720;SDS011;6932;51.438;5.470;2023-09-12T15:00:14;9.70;;;6.25;;